Time;durP1;ratioP1;P1;durP2;ratioP2;P2;SDS_P1;SDS_P2;PMS_P1;PMS_P2;Temp;Humidity;BMP_temperature;BMP_pressure;BME280_temperature;BME280_humidity;BME280_pressure;Samples;Min_cycle;Max_cycle;Signal;HPM_P1;HPM_P2
2024/02/13 00:01:41;;;;;;;78.72;28.45;;;;;;;8.78;100.00;99398.38;4989430;28;20026;-70
2024/02/13 00:04:10;;;;;;;40.13;17.48;;;;;;;9.23;100.00;99465.66;4989728;28;20039;-72
2024/02/13 00:06:37;;;;;;;25.35;8.65;;;;;;;9.17;100.00;99441.41;4990438;28;20046;-68
2024/02/13 00:09:04;;;;;;;30.08;9.05;;;;;;;9.28;100.00;99464.88;5007228;28;20034;-68
2024/02/13 00:11:30;;;;;;;24.75;11.00;;;;;;;9.16;100.00;99455.13;4965202;28;20418;-68
2024/02/13 00:13:56;;;;;;;21.30;9.18;;;;;;;9.18;100.00;99456.94;4990048;28;20049;-67
2024/02/13 00:16:22;;;;;;;32.00;11.75;;;;;;;9.03;100.00;99447.09;4983675;28;20030;-67
2024/02/13 00:18:49;;;;;;;25.55;9.85;;;;;;;8.94;100.00;99464.00;4989164;28;20030;-66
2024/02/13 00:21:14;;;;;;;22.90;6.32;;;;;;;8.75;100.00;99458.34;4990673;28;20499;-66
2024/02/13 00:23:40;;;;;;;16.95;6.20;;;;;;;8.44;100.00;99454.84;4989910;28;20121;-66
2024/02/13 00:26:09;;;;;;;14.88;6.22;;;;;;;8.39;100.00;99471.84;4988597;28;20034;-71
2024/02/13 00:28:37;;;;;;;22.53;7.73;;;;;;;8.23;100.00;99463.66;4989768;28;20528;-66
2024/02/13 00:31:07;;;;;;;22.42;7.57;;;;;;;8.13;100.00;99464.22;4989756;28;20313;-67
2024/02/13 00:33:34;;;;;;;18.25;6.57;;;;;;;7.86;100.00;99470.28;4989627;28;20038;-70
2024/02/13 00:36:03;;;;;;;15.30;6.57;;;;;;;7.35;100.00;99408.66;4989416;28;20124;-66
2024/02/13 00:38:29;;;;;;;19.20;5.55;;;;;;;7.54;100.00;99459.81;4989890;28;20030;-65
2024/02/13 00:40:55;;;;;;;20.40;5.97;;;;;;;7.67;100.00;99455.94;4992801;28;20039;-67
2024/02/13 00:43:22;;;;;;;15.02;5.97;;;;;;;7.81;100.00;99460.66;4989788;28;20039;-66
2024/02/13 00:45:48;;;;;;;23.67;6.68;;;;;;;7.88;100.00;99463.47;5003617;28;20045;-66
2024/02/13 00:48:14;;;;;;;18.02;6.30;;;;;;;7.98;100.00;99456.06;4989953;28;20121;-66
2024/02/13 00:50:44;;;;;;;26.13;7.40;;;;;;;7.77;100.00;99403.16;4989494;28;20086;-67
2024/02/13 00:53:10;;;;;;;19.70;6.00;;;;;;;7.41;100.00;99321.56;4989708;28;20030;-69
2024/02/13 00:55:36;;;;;;;14.50;5.22;;;;;;;8.28;100.00;99455.25;4990392;28;20500;-68
2024/02/13 00:58:02;;;;;;;19.35;6.97;;;;;;;8.40;100.00;99463.31;4989479;28;20772;-68
2024/02/13 01:00:28;;;;;;;19.73;6.43;;;;;;;8.43;100.00;99446.25;4989516;28;20080;-66
2024/02/13 01:02:55;;;;;;;15.88;7.05;;;;;;;8.57;100.00;99458.69;4989409;28;20038;-66
2024/02/13 01:05:21;;;;;;;16.95;5.80;;;;;;;8.67;100.00;99463.28;4989546;28;20101;-65
2024/02/13 01:07:47;;;;;;;16.80;5.65;;;;;;;8.74;100.00;99456.59;4989360;28;20042;-66
2024/02/13 01:10:15;;;;;;;19.90;5.97;;;;;;;8.60;100.00;99450.16;4989568;28;20026;-67
2024/02/13 01:12:41;;;;;;;14.68;6.00;;;;;;;8.82;100.00;99467.97;4990415;28;20030;-65
2024/02/13 01:15:07;;;;;;;23.77;6.65;;;;;;;8.82;100.00;99447.41;4989096;28;20023;-66
2024/02/13 01:17:33;;;;;;;22.63;7.03;;;;;;;8.13;100.00;99321.97;4989578;28;20437;-66
2024/02/13 01:19:59;;;;;;;22.13;6.47;;;;;;;8.86;100.00;99438.91;4991999;28;20050;-68
2024/02/13 01:22:24;;;;;;;18.75;6.13;;;;;;;8.40;100.00;99368.16;4994211;28;20027;-66
2024/02/13 01:24:51;;;;;;;15.25;5.57;;;;;;;8.92;100.00;99448.47;4993216;28;20057;-67
2024/02/13 01:27:18;;;;;;;16.55;5.45;;;;;;;8.90;100.00;99448.44;4992979;28;20044;-65
2024/02/13 01:29:44;;;;;;;16.73;6.10;;;;;;;8.92;100.00;99448.47;4991345;28;20034;-64
2024/02/13 01:32:09;;;;;;;17.55;5.70;;;;;;;8.89;100.00;99444.13;4992570;28;20421;-65
2024/02/13 01:34:35;;;;;;;14.85;6.10;;;;;;;8.94;100.00;99453.69;4993016;28;20084;-69
2024/02/13 01:37:01;;;;;;;17.45;6.57;;;;;;;8.81;100.00;99455.03;4993127;28;20026;-64
2024/02/13 01:39:26;;;;;;;19.02;6.18;;;;;;;8.68;100.00;99451.28;4993123;28;20034;-66
2024/02/13 01:41:53;;;;;;;15.02;6.43;;;;;;;8.77;100.00;99455.81;4983391;28;20042;-67
2024/02/13 01:44:18;;;;;;;18.13;6.90;;;;;;;8.56;100.00;99462.06;4993613;28;20053;-67
2024/02/13 01:46:44;;;;;;;16.20;6.15;;;;;;;8.51;100.00;99464.53;4993073;28;20034;-64
2024/02/13 01:49:10;;;;;;;24.92;6.15;;;;;;;7.85;100.00;99391.44;4992784;28;20045;-64
2024/02/13 01:51:37;;;;;;;22.13;6.55;;;;;;;8.15;100.00;99472.88;4992624;28;20398;-67
2024/02/13 01:54:05;;;;;;;28.38;6.95;;;;;;;8.22;100.00;99464.53;4992261;28;20039;-67
2024/02/13 01:56:33;;;;;;;21.90;7.25;;;;;;;8.32;100.00;99469.91;4991863;28;20088;-66
2024/02/13 01:59:03;;;;;;;17.10;6.20;;;;;;;8.00;100.00;99402.97;4992257;28;20026;-72
2024/02/13 02:01:29;;;;;;;20.98;6.72;;;;;;;7.85;100.00;99369.97;4989469;28;20030;-67
2024/02/13 02:03:58;;;;;;;19.60;6.95;;;;;;;8.37;100.00;99464.09;4992866;28;20041;-65
2024/02/13 02:06:24;;;;;;;22.00;6.43;;;;;;;8.01;100.00;99403.06;4982570;28;20038;-67
2024/02/13 02:08:50;;;;;;;19.20;6.75;;;;;;;8.39;100.00;99457.28;4981724;28;20041;-64
2024/02/13 02:11:16;;;;;;;25.13;7.05;;;;;;;8.60;100.00;99478.47;4992079;28;20045;-64
2024/02/13 02:13:42;;;;;;;21.05;6.80;;;;;;;8.68;100.00;99485.59;4992354;28;20176;-66
2024/02/13 02:16:08;;;;;;;22.20;6.93;;;;;;;8.71;100.00;99489.94;4992296;28;20088;-67
2024/02/13 02:18:34;;;;;;;17.90;6.43;;;;;;;8.71;100.00;99487.38;4991809;28;20117;-68
2024/02/13 02:20:59;;;;;;;18.08;6.30;;;;;;;8.67;100.00;99478.72;4992075;28;20399;-70
2024/02/13 02:23:26;;;;;;;21.02;7.28;;;;;;;8.61;100.00;99457.06;4992538;28;20035;-66
2024/02/13 02:25:52;;;;;;;15.27;6.18;;;;;;;8.69;100.00;99474.47;4991783;28;20508;-66
2024/02/13 02:28:17;;;;;;;20.92;7.18;;;;;;;8.71;100.00;99469.34;4992042;28;20030;-65
2024/02/13 02:30:44;;;;;;;17.48;6.80;;;;;;;8.65;100.00;99475.22;4992127;28;20478;-67
2024/02/13 02:33:14;;;;;;;16.55;7.15;;;;;;;8.49;100.00;99461.03;4980863;28;20061;-68
2024/02/13 02:35:43;;;;;;;23.45;6.45;;;;;;;8.11;100.00;99401.59;4991328;28;20421;-67
2024/02/13 02:38:11;;;;;;;18.75;6.72;;;;;;;8.50;100.00;99462.78;4991909;28;20049;-65
2024/02/13 02:40:37;;;;;;;19.75;7.03;;;;;;;8.63;100.00;99469.16;4991747;28;20026;-65
2024/02/13 02:43:03;;;;;;;17.63;6.95;;;;;;;8.53;100.00;99442.28;4992193;28;20038;-67
2024/02/13 02:45:29;;;;;;;15.70;7.07;;;;;;;8.69;100.00;99476.19;4992084;28;20052;-66
2024/02/13 02:47:55;;;;;;;22.33;6.60;;;;;;;8.71;100.00;99485.69;4991809;28;20042;-66
2024/02/13 02:50:22;;;;;;;20.02;7.13;;;;;;;8.70;100.00;99473.66;4991055;28;20037;-68
2024/02/13 02:52:48;;;;;;;19.50;7.40;;;;;;;8.71;100.00;99477.97;4991572;28;20098;-66
2024/02/13 02:55:18;;;;;;;17.35;7.60;;;;;;;8.75;100.00;99481.50;4991566;28;20030;-67
2024/02/13 02:57:43;;;;;;;26.65;7.25;;;;;;;8.69;100.00;99468.47;4992151;28;20070;-69
2024/02/13 03:00:12;;;;;;;21.77;7.93;;;;;;;8.38;100.00;99423.81;4991481;28;20077;-68
2024/02/13 03:02:40;;;;;;;21.13;6.93;;;;;;;8.31;100.00;99455.31;4936821;28;20118;-67
2024/02/13 03:05:07;;;;;;;14.82;6.97;;;;;;;8.35;100.00;99490.56;4987365;28;20466;-67
2024/02/13 03:07:33;;;;;;;17.42;6.55;;;;;;;8.21;100.00;99477.31;4991098;28;20030;-65
2024/02/13 03:09:59;;;;;;;19.02;7.70;;;;;;;8.35;100.00;99482.84;4991367;28;20477;-67
2024/02/13 03:12:25;;;;;;;19.55;7.72;;;;;;;8.48;100.00;99502.16;4991833;28;20493;-66
2024/02/13 03:14:55;;;;;;;23.02;7.45;;;;;;;8.39;100.00;99492.44;4980196;28;20053;-66
2024/02/13 03:17:22;;;;;;;19.95;7.60;;;;;;;8.34;100.00;99481.13;4991032;28;20034;-68
2024/02/13 03:19:48;;;;;;;20.50;8.15;;;;;;;8.32;100.00;99482.78;4991089;28;20042;-71
2024/02/13 03:22:14;;;;;;;18.10;7.53;;;;;;;8.36;100.00;99494.91;4990492;28;20037;-68
2024/02/13 03:24:40;;;;;;;18.20;7.68;;;;;;;8.35;100.00;99500.84;4990685;28;20038;-68
2024/02/13 03:27:05;;;;;;;20.02;7.35;;;;;;;8.34;100.00;99494.00;4981337;28;20030;-66
2024/02/13 03:29:31;;;;;;;19.58;8.40;;;;;;;8.42;100.00;99498.53;4983977;28;20039;-67
2024/02/13 03:31:57;;;;;;;19.55;8.70;;;;;;;8.50;100.00;99503.94;4979944;28;20457;-68
2024/02/13 03:34:22;;;;;;;22.83;9.68;;;;;;;8.55;100.00;99510.09;4979064;28;20112;-67
2024/02/13 03:36:49;;;;;;;20.63;8.65;;;;;;;8.57;100.00;99515.28;4991018;28;20038;-66
2024/02/13 03:39:14;;;;;;;19.77;9.88;;;;;;;8.62;100.00;99510.28;4990807;28;20169;-68
2024/02/13 03:41:46;;;;;;;24.52;9.50;;;;;;;8.68;100.00;99513.88;4990770;28;20112;-66
2024/02/13 03:44:11;;;;;;;21.45;9.48;;;;;;;8.68;100.00;99523.31;4990724;28;20177;-66
2024/02/13 03:46:38;;;;;;;24.48;9.80;;;;;;;8.52;100.00;99511.69;4990440;28;20129;-66
2024/02/13 03:49:05;;;;;;;21.98;10.05;;;;;;;8.52;100.00;99496.25;4990612;28;20037;-66
2024/02/13 03:51:31;;;;;;;18.58;9.98;;;;;;;8.73;100.00;99530.34;4991470;28;20037;-66
2024/02/13 03:53:56;;;;;;;25.40;10.48;;;;;;;8.78;100.00;99532.19;4990697;28;20027;-68
2024/02/13 03:56:22;;;;;;;18.63;10.68;;;;;;;8.78;100.00;99525.31;4990760;28;20525;-66
2024/02/13 03:58:47;;;;;;;16.00;9.10;;;;;;;8.81;100.00;99527.09;4990765;28;20037;-65
2024/02/13 04:01:13;;;;;;;23.05;9.45;;;;;;;8.75;100.00;99527.81;4990820;28;20033;-67
2024/02/13 04:03:38;;;;;;;16.63;8.85;;;;;;;8.72;100.00;99520.00;4990930;28;20034;-66
2024/02/13 04:06:05;;;;;;;21.73;9.05;;;;;;;8.29;100.00;99464.66;4990494;28;20031;-67
2024/02/13 04:08:31;;;;;;;22.65;9.32;;;;;;;8.60;100.00;99540.22;4990467;28;20044;-66
2024/02/13 04:10:57;;;;;;;26.10;10.68;;;;;;;8.09;100.00;99460.69;4990922;28;20401;-66
2024/02/13 04:13:24;;;;;;;27.85;10.90;;;;;;;8.57;100.00;99533.28;4990656;28;20026;-66
2024/02/13 04:15:50;;;;;;;24.98;11.90;;;;;;;8.60;100.00;99538.53;4990456;28;20129;-67
2024/02/13 04:18:16;;;;;;;29.55;11.52;;;;;;;8.23;100.00;99485.94;5011751;28;20034;-66
2024/02/13 04:20:42;;;;;;;23.20;10.43;;;;;;;8.52;100.00;99532.28;4990406;28;20404;-67
2024/02/13 04:23:07;;;;;;;21.48;11.63;;;;;;;8.43;100.00;99525.97;4989781;28;20109;-68
2024/02/13 04:25:33;;;;;;;20.80;11.18;;;;;;;8.42;100.00;99544.84;4980326;28;20039;-66
2024/02/13 04:27:59;;;;;;;28.88;11.88;;;;;;;8.00;100.00;99483.53;4996294;28;20041;-66
2024/02/13 04:30:24;;;;;;;24.77;11.98;;;;;;;7.81;100.00;99465.78;4990986;28;20030;-67
2024/02/13 04:32:50;;;;;;;25.98;11.32;;;;;;;8.20;100.00;99548.44;4977932;28;20498;-66
2024/02/13 04:35:15;;;;;;;21.45;11.15;;;;;;;8.05;100.00;99543.69;4990058;28;20038;-66
2024/02/13 04:37:41;;;;;;;25.85;12.73;;;;;;;8.03;100.00;99547.03;4990515;28;20486;-66
2024/02/13 04:40:08;;;;;;;25.88;12.70;;;;;;;7.44;100.00;99438.09;4990226;28;20030;-64
2024/02/13 04:42:36;;;;;;;27.80;12.60;;;;;;;7.97;100.00;99527.13;4990411;28;20045;-66
2024/02/13 04:45:03;;;;;;;26.08;13.52;;;;;;;8.12;100.00;99542.16;4989949;28;20034;-70
2024/02/13 04:47:30;;;;;;;21.33;11.82;;;;;;;8.09;100.00;99549.81;4990068;28;20070;-67
2024/02/13 04:50:01;;;;;;;24.17;11.68;;;;;;;8.09;100.00;99544.66;4991060;28;20030;-67
2024/02/13 04:52:27;;;;;;;24.00;11.45;;;;;;;8.14;100.00;99548.25;4990199;28;20052;-67
2024/02/13 04:54:53;;;;;;;26.02;12.15;;;;;;;8.09;100.00;99542.94;4992901;28;20038;-68
2024/02/13 04:57:19;;;;;;;22.30;10.50;;;;;;;8.08;100.00;99548.91;4994354;28;20037;-66
2024/02/13 04:59:48;;;;;;;21.10;10.65;;;;;;;7.97;100.00;99547.69;4993505;28;20030;-68
2024/02/13 05:02:18;;;;;;;21.85;10.05;;;;;;;7.79;100.00;99550.53;4951050;28;20481;-66
2024/02/13 05:07:30;;;;;;;22.80;12.10;;;;;;;7.57;100.00;99548.94;4993452;28;20056;-66
2024/02/13 05:09:59;;;;;;;24.58;13.55;;;;;;;7.64;100.00;99556.03;4993688;28;20035;-70
2024/02/13 05:12:25;;;;;;;31.30;16.58;;;;;;;7.64;100.00;99561.19;4991820;28;20035;-65
2024/02/13 05:14:52;;;;;;;52.30;31.20;;;;;;;7.65;100.00;99569.75;4993942;28;20520;-67
2024/02/13 05:17:23;;;;;;;30.92;18.42;;;;;;;7.59;100.00;99566.16;4993533;28;20482;-68
2024/02/13 05:19:50;;;;;;;37.00;17.33;;;;;;;7.61;100.00;99573.91;4993680;28;20173;-67
2024/02/13 05:22:16;;;;;;;33.53;15.18;;;;;;;7.51;100.00;99559.00;4994366;28;20027;-67
2024/02/13 05:24:45;;;;;;;29.80;13.70;;;;;;;7.60;100.00;99575.59;4993149;28;20038;-67
2024/02/13 05:27:13;;;;;;;29.17;13.63;;;;;;;7.60;100.00;99580.75;4993249;28;20482;-67
2024/02/13 05:29:39;;;;;;;28.58;13.48;;;;;;;7.74;100.00;99582.91;4993532;28;20128;-68
2024/02/13 05:32:05;;;;;;;34.58;14.40;;;;;;;7.85;100.00;99585.84;4993269;28;20097;-69
2024/02/13 05:34:34;;;;;;;26.55;12.32;;;;;;;7.92;100.00;99586.13;4993223;28;20512;-71
2024/02/13 05:37:01;;;;;;;27.23;12.13;;;;;;;7.75;100.00;99564.09;4993132;28;20054;-68
2024/02/13 05:39:29;;;;;;;24.52;11.90;;;;;;;7.88;100.00;99580.81;4992834;28;20121;-67
2024/02/13 05:41:56;;;;;;;25.75;12.15;;;;;;;7.94;100.00;99597.28;4964385;28;20527;-66
2024/02/13 05:44:22;;;;;;;29.30;12.60;;;;;;;8.06;100.00;99604.56;4993627;28;20421;-68
2024/02/13 05:46:48;;;;;;;28.17;12.27;;;;;;;8.12;100.00;99601.28;4982577;28;20683;-67
2024/02/13 05:49:14;;;;;;;24.25;12.30;;;;;;;8.09;100.00;99599.50;4993318;28;20046;-67
2024/02/13 05:51:39;;;;;;;33.20;12.48;;;;;;;8.12;100.00;99616.72;4993018;28;20084;-68
2024/02/13 05:54:05;;;;;;;30.17;12.18;;;;;;;8.14;100.00;99614.19;4982200;28;20181;-67
2024/02/13 05:56:32;;;;;;;29.73;16.77;;;;;;;8.19;100.00;99626.38;4993453;28;20526;-67
2024/02/13 05:59:00;;;;;;;31.42;16.17;;;;;;;8.22;100.00;99623.03;4993234;28;20569;-67
2024/02/13 06:01:26;;;;;;;28.15;13.07;;;;;;;8.22;100.00;99629.06;4993127;28;20113;-67
2024/02/13 06:03:55;;;;;;;23.02;12.48;;;;;;;8.25;100.00;99639.44;4993385;28;20121;-67
2024/02/13 06:06:21;;;;;;;27.45;12.68;;;;;;;8.31;100.00;99632.75;4992588;28;20441;-68
2024/02/13 06:08:47;;;;;;;22.17;11.98;;;;;;;8.29;100.00;99632.72;4992647;28;20490;-68
2024/02/13 06:11:13;;;;;;;29.50;13.15;;;;;;;7.78;100.00;99543.66;4993056;28;20097;-66
2024/02/13 06:13:41;;;;;;;33.00;19.17;;;;;;;7.85;100.00;99561.03;4969624;28;20046;-68
2024/02/13 06:16:07;;;;;;;53.97;28.20;;;;;;;7.92;100.00;99568.13;4992838;28;20077;-69
2024/02/13 06:18:32;;;;;;;30.75;17.58;;;;;;;8.23;100.00;99629.94;4991895;28;20034;-68
2024/02/13 06:20:59;;;;;;;32.92;15.43;;;;;;;7.72;100.00;99551.16;4991863;28;20514;-69
2024/02/13 06:23:24;;;;;;;28.70;12.45;;;;;;;8.18;100.00;99639.19;4981813;28;20482;-68
2024/02/13 06:25:50;;;;;;;26.13;12.45;;;;;;;7.81;100.00;99584.84;4991517;28;20041;-67
2024/02/13 06:28:16;;;;;;;29.25;14.52;;;;;;;7.70;100.00;99584.50;4992941;28;20034;-68
2024/02/13 06:30:43;;;;;;;34.92;14.85;;;;;;;8.02;100.00;99655.81;4991495;28;20041;-69
2024/02/13 06:33:09;;;;;;;37.80;19.63;;;;;;;8.16;100.00;99652.00;4991894;28;20033;-68
2024/02/13 06:35:35;;;;;;;35.38;16.60;;;;;;;8.25;100.00;99654.88;4991792;28;20030;-66
2024/02/13 06:38:00;;;;;;;26.77;13.77;;;;;;;8.34;100.00;99656.03;4991717;28;20026;-68
2024/02/13 06:40:29;;;;;;;29.83;15.10;;;;;;;8.41;100.00;99650.22;4992168;28;20069;-67
2024/02/13 06:42:54;;;;;;;27.80;13.95;;;;;;;8.43;100.00;99658.88;4983461;28;20057;-68
2024/02/13 06:45:20;;;;;;;27.20;13.35;;;;;;;8.48;100.00;99649.63;4991732;28;20426;-69
2024/02/13 06:47:45;;;;;;;30.65;14.32;;;;;;;8.54;100.00;99652.41;4980396;28;20035;-68
2024/02/13 06:50:15;;;;;;;28.77;13.50;;;;;;;8.52;100.00;99641.22;4992259;28;20038;-70
2024/02/13 06:52:41;;;;;;;29.42;13.15;;;;;;;8.65;100.00;99647.59;4992048;28;20042;-68
2024/02/13 06:55:08;;;;;;;27.65;14.35;;;;;;;8.75;100.00;99656.50;4991434;28;20034;-71
2024/02/13 06:57:35;;;;;;;30.92;13.55;;;;;;;8.68;100.00;99651.97;4991509;28;20101;-71
2024/02/13 07:00:04;;;;;;;30.45;13.73;;;;;;;8.71;100.00;99652.06;4978849;28;20027;-67
2024/02/13 07:02:29;;;;;;;31.60;15.18;;;;;;;8.73;100.00;99659.03;4991678;28;20018;-69
2024/02/13 07:04:55;;;;;;;27.83;14.05;;;;;;;8.76;100.00;99657.34;4992075;28;20022;-70
2024/02/13 07:07:20;;;;;;;28.88;13.50;;;;;;;8.77;100.00;99665.13;4991216;28;20038;-68
2024/02/13 07:09:49;;;;;;;25.38;13.65;;;;;;;8.73;100.00;99653.88;4981133;28;20027;-69
2024/02/13 07:12:15;;;;;;;31.20;13.97;;;;;;;8.85;100.00;99666.25;4983932;28;20022;-69
2024/02/13 07:14:44;;;;;;;28.02;13.35;;;;;;;8.88;100.00;99658.63;4991364;28;21118;-68
2024/02/13 07:17:10;;;;;;;25.95;12.82;;;;;;;8.74;100.00;99653.03;4990729;28;20069;-72
2024/02/13 07:19:35;;;;;;;28.38;12.20;;;;;;;8.78;100.00;99660.84;4975359;28;20085;-69
2024/02/13 07:22:01;;;;;;;27.55;12.45;;;;;;;8.80;100.00;99665.22;4991141;28;20034;-68
2024/02/13 07:24:26;;;;;;;26.38;13.50;;;;;;;8.45;100.00;99592.03;4991422;28;20478;-69
2024/02/13 07:26:52;;;;;;;27.15;13.45;;;;;;;8.88;100.00;99650.91;4992098;28;20382;-69
2024/02/13 07:29:18;;;;;;;22.38;11.60;;;;;;;8.82;100.00;99631.81;5014091;28;20062;-68
2024/02/13 07:31:44;;;;;;;30.88;14.98;;;;;;;9.03;100.00;99657.31;4982066;28;20050;-67
2024/02/13 07:34:10;;;;;;;24.83;15.02;;;;;;;9.04;100.00;99641.91;4990860;28;20030;-68
2024/02/13 07:36:36;;;;;;;24.20;12.57;;;;;;;9.20;100.00;99658.69;4991942;28;20045;-70
2024/02/13 07:39:02;;;;;;;22.90;11.50;;;;;;;9.35;100.00;99657.41;4990898;28;20482;-69
2024/02/13 07:41:28;;;;;;;20.77;10.25;;;;;;;9.57;100.00;99652.84;4990690;28;20038;-68
2024/02/13 07:43:53;;;;;;;23.92;10.55;;;;;;;9.67;100.00;99658.31;4990873;28;20027;-66
2024/02/13 07:46:20;;;;;;;19.38;10.98;;;;;;;9.47;100.00;99598.50;4991275;28;20025;-70
2024/02/13 07:48:47;;;;;;;19.63;9.40;;;;;;;9.84;100.00;99666.50;4990876;28;20030;-68
2024/02/13 07:51:15;;;;;;;21.90;9.32;;;;;;;9.77;100.00;99662.00;4990529;28;20041;-68
2024/02/13 07:53:41;;;;;;;18.38;9.05;;;;;;;9.80;100.00;99664.66;5017064;28;20616;-66
2024/02/13 07:56:09;;;;;;;20.85;9.32;;;;;;;9.26;100.00;99577.28;4990209;28;20031;-69
2024/02/13 07:58:34;;;;;;;11.70;6.70;;;;;;;9.78;100.00;99692.13;4988422;28;20489;-69
2024/02/13 08:01:00;;;;;;;14.88;6.20;;;;;;;9.79;100.00;99680.09;4990776;28;20030;-69
2024/02/13 08:03:25;;;;;;;13.43;5.82;;;;;;;9.66;100.00;99673.75;4990720;28;20104;-70
2024/02/13 08:05:51;;;;;;;16.55;7.38;;;;;;;9.79;100.00;99682.66;4991352;28;20494;-70
2024/02/13 08:08:17;;;;;;;10.73;5.10;;;;;;;9.66;100.00;99684.91;4990161;28;20046;-71
2024/02/13 08:10:43;;;;;;;10.85;5.82;;;;;;;9.60;100.00;99692.47;4990343;28;20486;-69
2024/02/13 08:13:09;;;;;;;11.55;6.32;;;;;;;9.51;100.00;99690.50;4990885;28;20034;-70
2024/02/13 08:15:36;;;;;;;9.77;6.38;;;;;;;9.58;100.00;99685.53;4989885;28;20550;-68
2024/02/13 08:18:03;;;;;;;9.85;6.07;;;;;;;9.60;100.00;99681.28;4990547;28;20065;-69
2024/02/13 08:20:28;;;;;;;11.02;6.20;;;;;;;9.63;100.00;99694.25;4990169;28;20053;-68
2024/02/13 08:22:54;;;;;;;10.52;5.93;;;;;;;9.67;100.00;99681.50;4990721;28;20030;-69
2024/02/13 08:25:21;;;;;;;13.32;6.40;;;;;;;9.77;100.00;99695.53;4991228;28;20026;-67
2024/02/13 08:27:46;;;;;;;12.95;7.85;;;;;;;9.81;100.00;99688.75;4990514;28;20145;-70
2024/02/13 08:30:12;;;;;;;16.05;9.75;;;;;;;9.96;100.00;99689.16;4990630;28;20549;-68
2024/02/13 08:32:41;;;;;;;12.30;6.30;;;;;;;10.06;100.00;99687.69;4990187;28;20022;-66
2024/02/13 08:35:08;;;;;;;12.65;6.40;;;;;;;10.12;100.00;99687.84;4990269;28;20377;-68
2024/02/13 08:37:34;;;;;;;12.63;7.18;;;;;;;10.19;100.00;99700.09;4993687;28;20049;-70
2024/02/13 08:40:00;;;;;;;12.00;7.22;;;;;;;9.90;100.00;99623.66;4990090;28;20066;-68
2024/02/13 08:42:26;;;;;;;8.35;5.70;;;;;;;10.34;100.00;99690.97;4987044;28;20084;-69
2024/02/13 08:44:52;;;;;;;9.80;5.78;;;;;;;10.36;100.00;99684.19;4977671;28;20038;-69
2024/02/13 08:47:19;;;;;;;12.90;6.10;;;;;;;10.56;100.00;99699.31;4989800;28;20041;-68
2024/02/13 08:49:46;;;;;;;12.43;7.53;;;;;;;10.69;100.00;99698.75;4989634;28;20495;-69
2024/02/13 08:52:11;;;;;;;9.93;6.72;;;;;;;10.78;100.00;99695.50;4989718;28;20031;-67
2024/02/13 08:54:38;;;;;;;11.35;5.50;;;;;;;10.97;100.00;99700.25;4989761;28;20117;-68
2024/02/13 08:57:04;;;;;;;9.82;5.20;;;;;;;10.59;100.00;99616.78;4989648;28;20023;-69
2024/02/13 08:59:31;;;;;;;12.05;5.43;;;;;;;10.65;100.00;99615.22;4990040;28;20077;-68
2024/02/13 09:01:57;;;;;;;10.68;5.38;;;;;;;11.12;100.00;99686.81;4989390;28;20066;-68
2024/02/13 09:04:23;;;;;;;9.07;5.55;;;;;;;11.24;100.00;99706.00;4990342;28;20026;-67
2024/02/13 09:06:49;;;;;;;7.90;4.60;;;;;;;11.22;100.00;99695.66;4989577;28;20026;-69
2024/02/13 09:09:15;;;;;;;12.40;5.15;;;;;;;11.46;100.00;99708.25;4989605;28;20081;-68
2024/02/13 09:11:41;;;;;;;7.60;4.60;;;;;;;11.42;100.00;99706.41;4989901;28;20117;-67
2024/02/13 09:14:07;;;;;;;8.60;4.80;;;;;;;11.46;100.00;99707.34;4989478;28;20110;-68
2024/02/13 09:16:33;;;;;;;11.05;5.53;;;;;;;11.42;100.00;99715.88;4990246;28;20058;-69
2024/02/13 09:18:58;;;;;;;12.90;5.15;;;;;;;11.40;100.00;99704.63;4990375;28;20030;-67
2024/02/13 09:21:25;;;;;;;7.68;5.15;;;;;;;11.40;100.00;99707.22;4990021;28;20116;-66
2024/02/13 09:23:51;;;;;;;11.23;4.80;;;;;;;11.47;100.00;99716.84;4989887;28;20030;-68
2024/02/13 09:26:16;;;;;;;11.80;5.85;;;;;;;11.56;100.00;99716.19;4977844;28;20077;-66
2024/02/13 09:28:43;;;;;;;10.65;5.53;;;;;;;11.68;100.00;99719.00;4990028;28;20022;-71
2024/02/13 09:31:09;;;;;;;13.32;5.45;;;;;;;11.79;100.00;99712.34;4991646;28;20034;-67
2024/02/13 09:33:34;;;;;;;11.65;5.30;;;;;;;11.71;100.00;99708.72;4990162;28;20117;-69
2024/02/13 09:36:00;;;;;;;9.98;5.10;;;;;;;11.54;100.00;99694.59;4989320;28;20442;-67
2024/02/13 09:38:26;;;;;;;11.75;5.28;;;;;;;11.65;100.00;99713.75;5013595;28;20035;-67
2024/02/13 09:40:51;;;;;;;9.75;5.00;;;;;;;11.65;100.00;99718.94;5009518;28;20114;-68
2024/02/13 09:43:18;;;;;;;9.32;5.68;;;;;;;11.61;100.00;99714.56;4993031;28;20060;-69
2024/02/13 09:45:44;;;;;;;12.32;4.75;;;;;;;11.60;100.00;99699.88;4985454;28;20042;-68
2024/02/13 09:48:29;;;;;;;10.00;5.32;;;;;;;11.58;100.00;99686.94;4992693;28;20048;-67
2024/02/13 09:50:58;;;;;;;13.95;4.90;;;;;;;11.75;100.00;99710.53;4993198;28;20026;-68
2024/02/13 09:53:28;;;;;;;9.98;4.43;;;;;;;11.65;100.00;99704.31;4992347;28;20030;-70
2024/02/13 09:55:57;;;;;;;10.00;4.30;;;;;;;11.36;100.00;99689.91;4992437;28;20133;-69
2024/02/13 09:58:24;;;;;;;9.90;4.05;;;;;;;11.30;100.00;99711.31;4993728;28;20585;-70
2024/02/13 10:00:53;;;;;;;8.38;4.13;;;;;;;11.21;100.00;99713.72;4992318;28;20053;-69
2024/02/13 10:03:19;;;;;;;;;;;;;;;11.30;100.00;99716.47;4993849;28;20034;-67
2024/02/13 10:06:06;;;;;;;7.75;4.20;;;;;;;11.46;100.00;99710.81;4969915;28;19918;-68
2024/02/13 10:08:34;;;;;;;10.98;4.70;;;;;;;11.53;100.00;99718.72;4985552;28;20121;-68
2024/02/13 10:11:04;;;;;;;10.77;4.90;;;;;;;11.55;100.00;99706.66;4978633;28;20228;-68
2024/02/13 10:13:35;;;;;;;7.40;3.72;;;;;;;11.63;100.00;99712.88;4980264;28;20069;-68
2024/02/13 10:16:01;;;;;;;6.78;4.43;;;;;;;11.64;100.00;99712.03;4961454;28;20035;-70
2024/02/13 10:18:27;;;;;;;9.43;4.95;;;;;;;11.48;100.00;99669.50;4978277;28;20450;-67
2024/02/13 10:20:54;;;;;;;12.05;6.18;;;;;;;11.66;100.00;99697.41;4974281;28;20063;-68
2024/02/13 10:23:24;;;;;;;13.45;5.47;;;;;;;11.84;100.00;99707.28;4976854;28;20035;-68
2024/02/13 10:25:50;;;;;;;10.93;5.25;;;;;;;11.75;100.00;99691.56;4984100;28;20038;-67
2024/02/13 10:28:17;;;;;;;10.40;5.60;;;;;;;11.76;100.00;99701.94;4979976;28;20073;-67
2024/02/13 10:30:53;;;;;;;13.25;6.25;;;;;;;11.87;100.00;99691.78;4983051;28;20068;-67
2024/02/13 10:33:19;;;;;;;10.90;5.78;;;;;;;11.97;100.00;99706.69;4938796;28;20162;-68
2024/02/13 10:35:52;;;;;;;15.77;7.20;;;;;;;11.84;100.00;99672.75;4971629;28;20031;-68
2024/02/13 10:38:23;;;;;;;11.05;6.13;;;;;;;11.93;100.00;99696.22;4972493;28;20410;-67
2024/02/13 10:40:57;;;;;;;9.52;5.88;;;;;;;11.78;100.00;99663.19;4975331;28;20617;-68
2024/02/13 10:43:24;;;;;;;13.70;7.75;;;;;;;12.05;100.00;99685.25;4984194;28;20057;-67
2024/02/13 10:45:57;;;;;;;14.80;5.40;;;;;;;12.16;100.00;99690.63;4991329;28;20490;-71
2024/02/13 10:49:07;;;;;;;11.55;5.95;;;;;;;12.30;100.00;99702.09;4985386;28;20033;-68
2024/02/13 10:51:34;;;;;;;7.60;5.15;;;;;;;11.91;100.00;99641.88;4960742;28;20121;-68
2024/02/13 10:54:04;;;;;;;16.60;10.45;;;;;;;12.24;100.00;99696.81;4956436;28;20105;-70
2024/02/13 10:56:34;;;;;;;;;;;;;;;12.43;100.00;99708.34;4956766;28;20058;-69
2024/02/13 10:59:01;;;;;;;11.77;6.93;;;;;;;12.23;100.00;99688.16;4952670;28;19950;-67
2024/02/13 11:01:27;;;;;;;10.30;6.50;;;;;;;12.19;100.00;99665.69;4955815;28;20130;-70
2024/02/13 11:03:57;;;;;;;9.52;6.75;;;;;;;12.58;100.00;99679.25;4946388;28;20477;-68
2024/02/13 11:06:24;;;;;;;15.80;7.18;;;;;;;12.79;100.00;99687.34;4953131;28;20051;-67
2024/02/13 11:08:49;;;;;;;10.02;6.80;;;;;;;13.12;100.00;99680.03;4962073;28;20035;-69
2024/02/13 11:11:21;;;;;;;10.20;6.05;;;;;;;13.14;100.00;99655.03;4959360;28;20035;-67
2024/02/13 11:13:49;;;;;;;10.02;6.57;;;;;;;13.42;100.00;99671.84;4949508;28;20122;-69
2024/02/13 11:16:15;;;;;;;8.98;5.95;;;;;;;12.97;100.00;99596.94;4961006;28;20131;-67
2024/02/13 11:18:48;;;;;;;9.23;5.65;;;;;;;13.11;100.00;99668.81;4951063;28;20130;-68
2024/02/13 11:21:21;;;;;;;9.20;5.90;;;;;;;13.15;100.00;99666.28;4950447;28;20043;-69
2024/02/13 11:23:58;;;;;;;8.20;4.97;;;;;;;13.19;100.00;99668.06;4950376;29;20046;-66